sensor_id;sensor_type;location;lat;lon;timestamp;P1;durP1;ratioP1;P2;durP2;ratioP2
74100;SDS011;62462;52.530;21.682;2022-08-03T00:05:03;4.22;;;2.95;;
74100;SDS011;62462;52.530;21.682;2022-08-03T00:18:08;4.00;;;2.85;;
74100;SDS011;62462;52.530;21.682;2022-08-03T00:24:15;5.30;;;3.13;;
74100;SDS011;62462;52.530;21.682;2022-08-03T00:26:41;5.07;;;3.00;;
74100;SDS011;62462;52.530;21.682;2022-08-03T00:29:10;4.53;;;3.35;;
74100;SDS011;62462;52.530;21.682;2022-08-03T00:45:56;5.47;;;3.40;;
74100;SDS011;62462;52.530;21.682;2022-08-03T00:52:03;4.85;;;3.35;;
74100;SDS011;62462;52.530;21.682;2022-08-03T00:58:12;4.20;;;2.65;;
74100;SDS011;62462;52.530;21.682;2022-08-03T01:04:19;4.10;;;2.88;;
74100;SDS011;62462;52.530;21.682;2022-08-03T01:10:36;3.85;;;2.55;;
74100;SDS011;62462;52.530;21.682;2022-08-03T01:30:43;2.47;;;1.75;;
74100;SDS011;62462;52.530;21.682;2022-08-03T01:57:00;2.45;;;2.10;;
74100;SDS011;62462;52.530;21.682;2022-08-03T02:20:45;3.30;;;1.83;;
74100;SDS011;62462;52.530;21.682;2022-08-03T02:34:17;2.20;;;1.85;;
74100;SDS011;62462;52.530;21.682;2022-08-03T02:49:54;2.58;;;1.80;;
74100;SDS011;62462;52.530;21.682;2022-08-03T02:59:20;2.17;;;1.83;;
74100;SDS011;62462;52.530;21.682;2022-08-03T03:12:51;2.63;;;1.90;;
74100;SDS011;62462;52.530;21.682;2022-08-03T03:15:20;1.92;;;1.75;;
74100;SDS011;62462;52.530;21.682;2022-08-03T03:21:31;3.95;;;2.10;;
74100;SDS011;62462;52.530;21.682;2022-08-03T03:31:00;2.80;;;2.10;;
74100;SDS011;62462;52.530;21.682;2022-08-03T03:39:58;3.28;;;1.70;;
74100;SDS011;62462;52.530;21.682;2022-08-03T03:49:23;2.00;;;1.63;;
74100;SDS011;62462;52.530;21.682;2022-08-03T03:51:53;2.88;;;1.98;;
74100;SDS011;62462;52.530;21.682;2022-08-03T03:58:00;2.35;;;1.90;;
74100;SDS011;62462;52.530;21.682;2022-08-03T04:00:28;1.83;;;1.67;;
74100;SDS011;62462;52.530;21.682;2022-08-03T04:13:39;2.63;;;1.63;;
74100;SDS011;62462;52.530;21.682;2022-08-03T04:22:44;2.97;;;1.90;;
74100;SDS011;62462;52.530;21.682;2022-08-03T04:25:11;3.15;;;2.20;;
74100;SDS011;62462;52.530;21.682;2022-08-03T04:27:43;2.92;;;2.05;;
74100;SDS011;62462;52.530;21.682;2022-08-03T04:33:30;2.53;;;1.70;;
74100;SDS011;62462;52.530;21.682;2022-08-03T04:42:55;1.95;;;1.60;;
74100;SDS011;62462;52.530;21.682;2022-08-03T04:49:04;2.45;;;1.30;;
74100;SDS011;62462;52.530;21.682;2022-08-03T05:02:33;1.75;;;1.55;;
74100;SDS011;62462;52.530;21.682;2022-08-03T05:08:42;2.65;;;1.92;;
74100;SDS011;62462;52.530;21.682;2022-08-03T05:14:49;2.35;;;1.77;;
74100;SDS011;62462;52.530;21.682;2022-08-03T05:24:07;1.83;;;1.63;;
74100;SDS011;62462;52.530;21.682;2022-08-03T05:30:08;2.17;;;1.50;;
74100;SDS011;62462;52.530;21.682;2022-08-03T05:39:01;2.20;;;1.60;;
74100;SDS011;62462;52.530;21.682;2022-08-03T05:45:04;2.53;;;1.38;;
74100;SDS011;62462;52.530;21.682;2022-08-03T05:54:10;2.72;;;1.23;;
74100;SDS011;62462;52.530;21.682;2022-08-03T06:00:11;1.88;;;1.35;;
74100;SDS011;62462;52.530;21.682;2022-08-03T06:06:12;1.40;;;1.30;;
74100;SDS011;62462;52.530;21.682;2022-08-03T06:14:40;2.17;;;0.90;;
74100;SDS011;62462;52.530;21.682;2022-08-03T06:17:05;1.83;;;1.63;;
74100;SDS011;62462;52.530;21.682;2022-08-03T06:32:45;3.50;;;2.30;;
74100;SDS011;62462;52.530;21.682;2022-08-03T06:41:41;3.10;;;2.35;;
74100;SDS011;62462;52.530;21.682;2022-08-03T06:50:52;3.20;;;1.75;;
74100;SDS011;62462;52.530;21.682;2022-08-03T06:56:53;1.63;;;1.52;;
74100;SDS011;62462;52.530;21.682;2022-08-03T07:02:54;1.30;;;1.20;;
74100;SDS011;62462;52.530;21.682;2022-08-03T07:08:55;1.45;;;1.30;;
74100;SDS011;62462;52.530;21.682;2022-08-03T07:14:58;1.50;;;1.25;;
74100;SDS011;62462;52.530;21.682;2022-08-03T07:24:10;1.45;;;0.90;;
74100;SDS011;62462;52.530;21.682;2022-08-03T07:33:31;1.88;;;1.20;;
74100;SDS011;62462;52.530;21.682;2022-08-03T07:43:07;1.10;;;1.00;;
74100;SDS011;62462;52.530;21.682;2022-08-03T07:49:08;0.90;;;0.80;;
74100;SDS011;62462;52.530;21.682;2022-08-03T07:51:35;0.85;;;0.85;;
74100;SDS011;62462;52.530;21.682;2022-08-03T07:54:04;1.00;;;0.90;;
74100;SDS011;62462;52.530;21.682;2022-08-03T07:56:33;0.95;;;0.90;;
74100;SDS011;62462;52.530;21.682;2022-08-03T08:15:55;0.88;;;0.88;;
74100;SDS011;62462;52.530;21.682;2022-08-03T08:21:56;2.20;;;0.90;;
74100;SDS011;62462;52.530;21.682;2022-08-03T08:27:57;1.40;;;0.90;;
74100;SDS011;62462;52.530;21.682;2022-08-03T08:34:01;2.65;;;1.67;;
74100;SDS011;62462;52.530;21.682;2022-08-03T08:40:05;1.20;;;1.10;;
74100;SDS011;62462;52.530;21.682;2022-08-03T08:46:11;1.08;;;0.90;;
74100;SDS011;62462;52.530;21.682;2022-08-03T08:55:29;1.83;;;1.33;;
74100;SDS011;62462;52.530;21.682;2022-08-03T09:01:35;0.95;;;0.95;;
74100;SDS011;62462;52.530;21.682;2022-08-03T09:08:04;2.25;;;1.00;;
74100;SDS011;62462;52.530;21.682;2022-08-03T09:20:33;3.80;;;1.42;;
74100;SDS011;62462;52.530;21.682;2022-08-03T09:29:50;2.30;;;1.65;;
74100;SDS011;62462;52.530;21.682;2022-08-03T09:35:51;1.25;;;1.08;;
74100;SDS011;62462;52.530;21.682;2022-08-03T09:41:38;1.58;;;1.48;;
74100;SDS011;62462;52.530;21.682;2022-08-03T09:44:04;2.33;;;1.70;;
74100;SDS011;62462;52.530;21.682;2022-08-03T09:46:30;1.80;;;1.70;;
74100;SDS011;62462;52.530;21.682;2022-08-03T09:49:10;2.25;;;1.85;;
74100;SDS011;62462;52.530;21.682;2022-08-03T09:51:36;3.85;;;1.80;;
74100;SDS011;62462;52.530;21.682;2022-08-03T09:54:02;2.13;;;1.88;;
74100;SDS011;62462;52.530;21.682;2022-08-03T09:56:45;1.75;;;1.65;;
74100;SDS011;62462;52.530;21.682;2022-08-03T09:59:12;1.60;;;1.50;;
74100;SDS011;62462;52.530;21.682;2022-08-03T10:01:47;1.92;;;1.35;;
74100;SDS011;62462;52.530;21.682;2022-08-03T10:04:13;3.80;;;2.35;;
74100;SDS011;62462;52.530;21.682;2022-08-03T10:06:44;2.55;;;1.75;;
74100;SDS011;62462;52.530;21.682;2022-08-03T10:11:38;1.90;;;1.63;;
74100;SDS011;62462;52.530;21.682;2022-08-03T10:14:05;1.80;;;1.48;;
74100;SDS011;62462;52.530;21.682;2022-08-03T10:16:34;1.58;;;1.48;;
74100;SDS011;62462;52.530;21.682;2022-08-03T10:19:03;1.88;;;1.40;;
74100;SDS011;62462;52.530;21.682;2022-08-03T10:21:34;1.48;;;1.38;;
74100;SDS011;62462;52.530;21.682;2022-08-03T10:24:03;1.70;;;1.60;;
74100;SDS011;62462;52.530;21.682;2022-08-03T10:26:31;1.90;;;1.70;;
74100;SDS011;62462;52.530;21.682;2022-08-03T10:28:59;1.80;;;1.48;;
74100;SDS011;62462;52.530;21.682;2022-08-03T10:31:30;1.60;;;1.50;;
74100;SDS011;62462;52.530;21.682;2022-08-03T10:34:13;1.95;;;1.83;;
74100;SDS011;62462;52.530;21.682;2022-08-03T10:36:42;3.40;;;2.22;;
74100;SDS011;62462;52.530;21.682;2022-08-03T10:39:11;2.45;;;2.13;;
74100;SDS011;62462;52.530;21.682;2022-08-03T10:41:39;2.25;;;2.05;;
74100;SDS011;62462;52.530;21.682;2022-08-03T10:44:09;2.42;;;2.15;;
74100;SDS011;62462;52.530;21.682;2022-08-03T10:46:39;3.47;;;2.15;;
74100;SDS011;62462;52.530;21.682;2022-08-03T10:49:07;2.00;;;1.80;;
74100;SDS011;62462;52.530;21.682;2022-08-03T10:51:36;2.35;;;2.15;;
74100;SDS011;62462;52.530;21.682;2022-08-03T10:54:02;2.25;;;2.05;;
74100;SDS011;62462;52.530;21.682;2022-08-03T10:59:19;1.95;;;1.60;;
74100;SDS011;62462;52.530;21.682;2022-08-03T11:02:04;1.58;;;1.48;;
74100;SDS011;62462;52.530;21.682;2022-08-03T11:04:33;2.13;;;1.90;;
74100;SDS011;62462;52.530;21.682;2022-08-03T11:09:48;2.22;;;2.03;;
74100;SDS011;62462;52.530;21.682;2022-08-03T11:12:24;1.60;;;1.50;;
74100;SDS011;62462;52.530;21.682;2022-08-03T11:14:50;1.50;;;1.40;;
74100;SDS011;62462;52.530;21.682;2022-08-03T11:17:18;1.30;;;1.20;;
74100;SDS011;62462;52.530;21.682;2022-08-03T11:19:45;2.50;;;1.60;;
74100;SDS011;62462;52.530;21.682;2022-08-03T11:22:12;1.50;;;1.40;;
74100;SDS011;62462;52.530;21.682;2022-08-03T11:27:19;1.30;;;1.20;;
74100;SDS011;62462;52.530;21.682;2022-08-03T11:40:35;1.92;;;1.50;;
74100;SDS011;62462;52.530;21.682;2022-08-03T11:46:15;3.35;;;1.90;;
74100;SDS011;62462;52.530;21.682;2022-08-03T11:48:47;2.30;;;2.10;;
74100;SDS011;62462;52.530;21.682;2022-08-03T11:51:18;3.20;;;2.30;;
74100;SDS011;62462;52.530;21.682;2022-08-03T11:53:46;1.90;;;1.80;;
74100;SDS011;62462;52.530;21.682;2022-08-03T11:56:15;2.38;;;1.88;;
74100;SDS011;62462;52.530;21.682;2022-08-03T11:58:47;1.70;;;1.60;;
74100;SDS011;62462;52.530;21.682;2022-08-03T12:01:18;1.92;;;1.40;;
74100;SDS011;62462;52.530;21.682;2022-08-03T12:03:44;1.30;;;1.20;;
74100;SDS011;62462;52.530;21.682;2022-08-03T12:06:11;1.30;;;1.20;;
74100;SDS011;62462;52.530;21.682;2022-08-03T12:08:40;1.10;;;1.10;;
74100;SDS011;62462;52.530;21.682;2022-08-03T12:11:07;1.13;;;0.95;;
74100;SDS011;62462;52.530;21.682;2022-08-03T12:16:07;1.63;;;1.35;;
74100;SDS011;62462;52.530;21.682;2022-08-03T12:18:34;0.90;;;0.90;;
74100;SDS011;62462;52.530;21.682;2022-08-03T12:21:07;0.85;;;0.85;;
74100;SDS011;62462;52.530;21.682;2022-08-03T12:23:37;0.90;;;0.90;;
74100;SDS011;62462;52.530;21.682;2022-08-03T12:26:07;0.90;;;0.90;;
74100;SDS011;62462;52.530;21.682;2022-08-03T12:28:34;0.95;;;0.95;;
74100;SDS011;62462;52.530;21.682;2022-08-03T12:31:05;0.90;;;0.90;;
74100;SDS011;62462;52.530;21.682;2022-08-03T12:33:34;1.10;;;1.00;;
74100;SDS011;62462;52.530;21.682;2022-08-03T12:36:27;1.00;;;1.00;;
74100;SDS011;62462;52.530;21.682;2022-08-03T12:39:02;1.30;;;1.20;;
74100;SDS011;62462;52.530;21.682;2022-08-03T12:44:03;1.70;;;1.20;;
74100;SDS011;62462;52.530;21.682;2022-08-03T12:46:31;1.15;;;1.00;;
74100;SDS011;62462;52.530;21.682;2022-08-03T12:49:03;1.20;;;1.10;;
74100;SDS011;62462;52.530;21.682;2022-08-03T12:51:33;2.00;;;1.40;;
74100;SDS011;62462;52.530;21.682;2022-08-03T12:54:01;1.20;;;1.20;;
74100;SDS011;62462;52.530;21.682;2022-08-03T12:56:28;1.40;;;1.30;;
74100;SDS011;62462;52.530;21.682;2022-08-03T12:58:54;1.27;;;1.17;;
74100;SDS011;62462;52.530;21.682;2022-08-03T13:01:20;1.40;;;1.30;;
74100;SDS011;62462;52.530;21.682;2022-08-03T13:03:48;1.30;;;1.20;;
74100;SDS011;62462;52.530;21.682;2022-08-03T13:06:17;1.00;;;1.00;;
74100;SDS011;62462;52.530;21.682;2022-08-03T13:08:43;1.00;;;1.00;;
74100;SDS011;62462;52.530;21.682;2022-08-03T13:11:19;1.08;;;1.08;;
74100;SDS011;62462;52.530;21.682;2022-08-03T13:13:49;0.90;;;0.88;;
74100;SDS011;62462;52.530;21.682;2022-08-03T13:16:15;0.90;;;0.90;;
74100;SDS011;62462;52.530;21.682;2022-08-03T13:18:41;1.73;;;1.30;;
74100;SDS011;62462;52.530;21.682;2022-08-03T13:21:08;1.20;;;1.10;;
74100;SDS011;62462;52.530;21.682;2022-08-03T13:23:34;0.90;;;0.90;;
74100;SDS011;62462;52.530;21.682;2022-08-03T13:25:59;2.53;;;0.88;;
74100;SDS011;62462;52.530;21.682;2022-08-03T13:28:25;1.30;;;1.20;;
74100;SDS011;62462;52.530;21.682;2022-08-03T13:30:51;1.00;;;0.90;;
74100;SDS011;62462;52.530;21.682;2022-08-03T13:33:18;1.67;;;1.10;;
74100;SDS011;62462;52.530;21.682;2022-08-03T13:35:44;1.20;;;1.10;;
74100;SDS011;62462;52.530;21.682;2022-08-03T13:38:10;1.35;;;1.20;;
74100;SDS011;62462;52.530;21.682;2022-08-03T13:40:35;1.23;;;1.13;;
74100;SDS011;62462;52.530;21.682;2022-08-03T13:43:02;1.38;;;1.27;;
74100;SDS011;62462;52.530;21.682;2022-08-03T13:45:28;1.70;;;1.38;;
74100;SDS011;62462;52.530;21.682;2022-08-03T13:47:54;1.05;;;1.05;;
74100;SDS011;62462;52.530;21.682;2022-08-03T13:50:20;2.28;;;1.60;;
74100;SDS011;62462;52.530;21.682;2022-08-03T13:52:45;1.65;;;1.55;;
74100;SDS011;62462;52.530;21.682;2022-08-03T13:55:11;1.38;;;1.27;;
74100;SDS011;62462;52.530;21.682;2022-08-03T13:57:37;2.78;;;1.02;;
74100;SDS011;62462;52.530;21.682;2022-08-03T14:00:04;1.63;;;1.35;;
74100;SDS011;62462;52.530;21.682;2022-08-03T14:02:30;1.73;;;1.58;;
74100;SDS011;62462;52.530;21.682;2022-08-03T14:04:56;1.80;;;1.40;;
74100;SDS011;62462;52.530;21.682;2022-08-03T14:07:22;2.15;;;1.20;;
74100;SDS011;62462;52.530;21.682;2022-08-03T14:09:48;1.30;;;1.20;;
74100;SDS011;62462;52.530;21.682;2022-08-03T14:12:15;1.77;;;1.02;;
74100;SDS011;62462;52.530;21.682;2022-08-03T14:14:40;1.10;;;1.00;;
74100;SDS011;62462;52.530;21.682;2022-08-03T14:17:07;1.10;;;1.00;;
74100;SDS011;62462;52.530;21.682;2022-08-03T14:19:32;1.10;;;1.00;;
74100;SDS011;62462;52.530;21.682;2022-08-03T14:21:58;1.40;;;1.30;;
74100;SDS011;62462;52.530;21.682;2022-08-03T14:24:24;1.20;;;1.10;;
74100;SDS011;62462;52.530;21.682;2022-08-03T14:26:49;1.30;;;1.20;;
74100;SDS011;62462;52.530;21.682;2022-08-03T14:29:15;1.20;;;1.10;;
74100;SDS011;62462;52.530;21.682;2022-08-03T14:31:41;1.60;;;1.38;;
74100;SDS011;62462;52.530;21.682;2022-08-03T14:34:07;0.93;;;0.90;;
74100;SDS011;62462;52.530;21.682;2022-08-03T14:36:33;1.15;;;1.10;;
74100;SDS011;62462;52.530;21.682;2022-08-03T14:38:58;1.27;;;1.17;;
74100;SDS011;62462;52.530;21.682;2022-08-03T14:41:24;1.55;;;1.45;;
74100;SDS011;62462;52.530;21.682;2022-08-03T14:43:50;1.05;;;1.05;;
74100;SDS011;62462;52.530;21.682;2022-08-03T14:49:06;1.48;;;1.38;;
74100;SDS011;62462;52.530;21.682;2022-08-03T14:51:32;1.00;;;1.00;;
74100;SDS011;62462;52.530;21.682;2022-08-03T14:54:00;1.00;;;1.00;;
74100;SDS011;62462;52.530;21.682;2022-08-03T14:56:26;2.40;;;1.17;;
74100;SDS011;62462;52.530;21.682;2022-08-03T14:58:51;0.95;;;0.95;;
74100;SDS011;62462;52.530;21.682;2022-08-03T15:01:17;1.38;;;1.27;;
74100;SDS011;62462;52.530;21.682;2022-08-03T15:03:43;1.15;;;1.05;;
74100;SDS011;62462;52.530;21.682;2022-08-03T15:06:14;1.38;;;1.27;;
74100;SDS011;62462;52.530;21.682;2022-08-03T15:08:40;1.10;;;0.90;;
74100;SDS011;62462;52.530;21.682;2022-08-03T15:11:06;1.10;;;1.10;;
74100;SDS011;62462;52.530;21.682;2022-08-03T15:13:32;1.10;;;1.00;;
74100;SDS011;62462;52.530;21.682;2022-08-03T15:15:57;1.45;;;1.15;;
74100;SDS011;62462;52.530;21.682;2022-08-03T15:18:23;1.30;;;1.20;;
74100;SDS011;62462;52.530;21.682;2022-08-03T15:20:49;1.15;;;1.05;;
74100;SDS011;62462;52.530;21.682;2022-08-03T15:23:15;1.02;;;0.98;;
74100;SDS011;62462;52.530;21.682;2022-08-03T15:25:42;1.88;;;0.88;;
74100;SDS011;62462;52.530;21.682;2022-08-03T15:28:09;2.13;;;1.10;;
74100;SDS011;62462;52.530;21.682;2022-08-03T15:30:34;1.40;;;1.10;;
74100;SDS011;62462;52.530;21.682;2022-08-03T15:33:02;1.00;;;0.90;;
74100;SDS011;62462;52.530;21.682;2022-08-03T15:35:28;1.30;;;1.00;;
74100;SDS011;62462;52.530;21.682;2022-08-03T15:37:54;1.13;;;1.08;;
74100;SDS011;62462;52.530;21.682;2022-08-03T15:40:20;1.30;;;1.20;;
74100;SDS011;62462;52.530;21.682;2022-08-03T15:42:45;1.30;;;1.20;;
74100;SDS011;62462;52.530;21.682;2022-08-03T15:45:11;1.13;;;1.02;;
74100;SDS011;62462;52.530;21.682;2022-08-03T15:47:37;1.50;;;1.40;;
74100;SDS011;62462;52.530;21.682;2022-08-03T15:50:03;1.27;;;1.17;;
74100;SDS011;62462;52.530;21.682;2022-08-03T15:52:32;1.55;;;1.20;;
74100;SDS011;62462;52.530;21.682;2022-08-03T15:54:57;1.17;;;1.08;;
74100;SDS011;62462;52.530;21.682;2022-08-03T15:57:23;0.90;;;0.90;;
74100;SDS011;62462;52.530;21.682;2022-08-03T15:59:49;1.30;;;0.95;;
74100;SDS011;62462;52.530;21.682;2022-08-03T16:02:15;1.80;;;1.30;;
74100;SDS011;62462;52.530;21.682;2022-08-03T16:04:41;1.08;;;1.08;;
74100;SDS011;62462;52.530;21.682;2022-08-03T16:07:07;1.20;;;1.08;;
74100;SDS011;62462;52.530;21.682;2022-08-03T16:09:33;1.20;;;1.00;;
74100;SDS011;62462;52.530;21.682;2022-08-03T16:11:58;1.20;;;1.10;;
74100;SDS011;62462;52.530;21.682;2022-08-03T16:14:24;0.80;;;0.80;;
74100;SDS011;62462;52.530;21.682;2022-08-03T16:16:50;1.30;;;1.20;;
74100;SDS011;62462;52.530;21.682;2022-08-03T16:19:16;1.10;;;1.00;;
74100;SDS011;62462;52.530;21.682;2022-08-03T16:21:41;2.13;;;1.80;;
74100;SDS011;62462;52.530;21.682;2022-08-03T16:24:07;3.17;;;1.90;;
74100;SDS011;62462;52.530;21.682;2022-08-03T16:26:33;1.75;;;1.55;;
74100;SDS011;62462;52.530;21.682;2022-08-03T16:28:59;2.22;;;1.50;;
74100;SDS011;62462;52.530;21.682;2022-08-03T16:31:27;1.20;;;1.17;;
74100;SDS011;62462;52.530;21.682;2022-08-03T16:33:55;2.17;;;1.50;;
74100;SDS011;62462;52.530;21.682;2022-08-03T16:36:21;1.50;;;1.40;;
74100;SDS011;62462;52.530;21.682;2022-08-03T16:38:47;1.42;;;1.10;;
74100;SDS011;62462;52.530;21.682;2022-08-03T16:41:13;1.30;;;1.20;;
74100;SDS011;62462;52.530;21.682;2022-08-03T16:43:38;1.10;;;1.00;;
74100;SDS011;62462;52.530;21.682;2022-08-03T16:46:04;0.90;;;0.90;;
74100;SDS011;62462;52.530;21.682;2022-08-03T16:48:30;1.30;;;1.20;;
74100;SDS011;62462;52.530;21.682;2022-08-03T16:50:55;1.25;;;1.15;;
74100;SDS011;62462;52.530;21.682;2022-08-03T16:53:21;1.83;;;1.08;;
74100;SDS011;62462;52.530;21.682;2022-08-03T16:55:47;1.30;;;1.20;;
74100;SDS011;62462;52.530;21.682;2022-08-03T16:58:13;1.23;;;1.13;;
74100;SDS011;62462;52.530;21.682;2022-08-03T17:00:42;1.30;;;1.10;;
74100;SDS011;62462;52.530;21.682;2022-08-03T17:03:08;1.67;;;1.10;;
74100;SDS011;62462;52.530;21.682;2022-08-03T17:05:34;1.73;;;1.50;;
74100;SDS011;62462;52.530;21.682;2022-08-03T17:08:03;1.40;;;1.30;;
74100;SDS011;62462;52.530;21.682;2022-08-03T17:10:29;1.63;;;1.50;;
74100;SDS011;62462;52.530;21.682;2022-08-03T17:12:55;1.42;;;1.30;;
74100;SDS011;62462;52.530;21.682;2022-08-03T17:15:20;1.92;;;1.25;;
74100;SDS011;62462;52.530;21.682;2022-08-03T17:20:44;1.20;;;1.10;;
74100;SDS011;62462;52.530;21.682;2022-08-03T17:23:16;1.30;;;1.10;;
74100;SDS011;62462;52.530;21.682;2022-08-03T17:25:52;1.38;;;1.25;;
74100;SDS011;62462;52.530;21.682;2022-08-03T17:28:18;2.17;;;1.20;;
74100;SDS011;62462;52.530;21.682;2022-08-03T17:30:45;2.55;;;1.20;;
74100;SDS011;62462;52.530;21.682;2022-08-03T17:33:30;1.48;;;1.35;;
74100;SDS011;62462;52.530;21.682;2022-08-03T17:35:56;1.50;;;1.40;;
74100;SDS011;62462;52.530;21.682;2022-08-03T17:38:23;1.63;;;1.45;;
74100;SDS011;62462;52.530;21.682;2022-08-03T17:40:49;1.50;;;1.40;;
74100;SDS011;62462;52.530;21.682;2022-08-03T17:43:15;5.55;;;1.63;;
74100;SDS011;62462;52.530;21.682;2022-08-03T17:45:41;2.58;;;1.60;;
74100;SDS011;62462;52.530;21.682;2022-08-03T17:48:07;2.20;;;1.60;;
74100;SDS011;62462;52.530;21.682;2022-08-03T17:50:37;1.70;;;1.38;;
74100;SDS011;62462;52.530;21.682;2022-08-03T17:53:11;2.28;;;1.55;;
74100;SDS011;62462;52.530;21.682;2022-08-03T17:55:39;2.15;;;1.95;;
74100;SDS011;62462;52.530;21.682;2022-08-03T17:58:19;1.63;;;1.52;;
74100;SDS011;62462;52.530;21.682;2022-08-03T18:01:06;1.90;;;1.70;;
74100;SDS011;62462;52.530;21.682;2022-08-03T18:03:54;1.63;;;1.50;;
74100;SDS011;62462;52.530;21.682;2022-08-03T18:06:30;2.13;;;1.95;;
74100;SDS011;62462;52.530;21.682;2022-08-03T18:11:27;1.90;;;1.60;;
74100;SDS011;62462;52.530;21.682;2022-08-03T18:14:06;2.17;;;1.98;;
74100;SDS011;62462;52.530;21.682;2022-08-03T18:16:37;2.20;;;2.00;;
74100;SDS011;62462;52.530;21.682;2022-08-03T18:19:19;2.65;;;2.25;;
74100;SDS011;62462;52.530;21.682;2022-08-03T18:21:48;2.30;;;2.08;;
74100;SDS011;62462;52.530;21.682;2022-08-03T18:24:16;2.97;;;2.20;;
74100;SDS011;62462;52.530;21.682;2022-08-03T18:26:43;3.10;;;2.42;;
74100;SDS011;62462;52.530;21.682;2022-08-03T18:29:11;3.63;;;2.88;;
74100;SDS011;62462;52.530;21.682;2022-08-03T18:31:37;3.53;;;2.47;;
74100;SDS011;62462;52.530;21.682;2022-08-03T18:34:04;3.53;;;2.50;;
74100;SDS011;62462;52.530;21.682;2022-08-03T18:36:32;2.90;;;2.65;;
74100;SDS011;62462;52.530;21.682;2022-08-03T18:39:02;5.05;;;2.67;;
74100;SDS011;62462;52.530;21.682;2022-08-03T18:41:31;3.30;;;2.78;;
74100;SDS011;62462;52.530;21.682;2022-08-03T18:43:57;5.00;;;3.05;;
74100;SDS011;62462;52.530;21.682;2022-08-03T18:46:29;4.00;;;3.42;;
74100;SDS011;62462;52.530;21.682;2022-08-03T18:49:20;4.95;;;3.80;;
74100;SDS011;62462;52.530;21.682;2022-08-03T18:51:58;8.38;;;5.03;;
74100;SDS011;62462;52.530;21.682;2022-08-03T18:54:31;9.15;;;5.97;;
74100;SDS011;62462;52.530;21.682;2022-08-03T18:57:07;9.35;;;5.25;;
74100;SDS011;62462;52.530;21.682;2022-08-03T19:00:11;12.43;;;5.97;;
74100;SDS011;62462;52.530;21.682;2022-08-03T19:02:51;10.10;;;6.85;;
74100;SDS011;62462;52.530;21.682;2022-08-03T19:05:22;11.65;;;6.38;;
74100;SDS011;62462;52.530;21.682;2022-08-03T19:10:42;10.70;;;6.85;;
74100;SDS011;62462;52.530;21.682;2022-08-03T19:13:22;10.10;;;6.07;;
74100;SDS011;62462;52.530;21.682;2022-08-03T19:15:52;8.23;;;6.28;;
74100;SDS011;62462;52.530;21.682;2022-08-03T19:18:21;8.38;;;5.70;;
74100;SDS011;62462;52.530;21.682;2022-08-03T19:20:48;9.75;;;6.20;;
74100;SDS011;62462;52.530;21.682;2022-08-03T19:23:17;9.52;;;6.18;;
74100;SDS011;62462;52.530;21.682;2022-08-03T19:25:49;8.50;;;5.97;;
74100;SDS011;62462;52.530;21.682;2022-08-03T19:28:15;9.57;;;6.28;;
74100;SDS011;62462;52.530;21.682;2022-08-03T19:30:41;10.43;;;6.82;;
74100;SDS011;62462;52.530;21.682;2022-08-03T19:33:08;10.20;;;6.72;;
74100;SDS011;62462;52.530;21.682;2022-08-03T19:35:42;9.77;;;7.13;;
74100;SDS011;62462;52.530;21.682;2022-08-03T19:38:09;10.20;;;6.75;;
74100;SDS011;62462;52.530;21.682;2022-08-03T19:40:35;10.32;;;6.35;;
74100;SDS011;62462;52.530;21.682;2022-08-03T19:43:06;8.90;;;6.50;;
74100;SDS011;62462;52.530;21.682;2022-08-03T19:45:36;8.80;;;6.40;;
74100;SDS011;62462;52.530;21.682;2022-08-03T19:48:04;8.27;;;6.10;;
74100;SDS011;62462;52.530;21.682;2022-08-03T19:50:33;9.77;;;6.43;;
74100;SDS011;62462;52.530;21.682;2022-08-03T19:53:07;8.23;;;5.65;;
74100;SDS011;62462;52.530;21.682;2022-08-03T19:55:42;9.18;;;5.70;;
74100;SDS011;62462;52.530;21.682;2022-08-03T20:00:37;11.05;;;5.38;;
74100;SDS011;62462;52.530;21.682;2022-08-03T20:03:04;8.80;;;5.50;;
74100;SDS011;62462;52.530;21.682;2022-08-03T20:05:31;11.90;;;5.85;;
74100;SDS011;62462;52.530;21.682;2022-08-03T20:07:58;8.27;;;5.60;;
74100;SDS011;62462;52.530;21.682;2022-08-03T20:10:26;8.45;;;5.43;;
74100;SDS011;62462;52.530;21.682;2022-08-03T20:12:54;10.10;;;5.95;;
74100;SDS011;62462;52.530;21.682;2022-08-03T20:15:21;7.93;;;6.10;;
74100;SDS011;62462;52.530;21.682;2022-08-03T20:17:48;8.63;;;5.60;;
74100;SDS011;62462;52.530;21.682;2022-08-03T20:20:25;9.25;;;6.50;;
74100;SDS011;62462;52.530;21.682;2022-08-03T20:22:54;9.18;;;6.07;;
74100;SDS011;62462;52.530;21.682;2022-08-03T20:25:23;9.63;;;5.75;;
74100;SDS011;62462;52.530;21.682;2022-08-03T20:27:56;9.27;;;6.15;;
74100;SDS011;62462;52.530;21.682;2022-08-03T20:30:30;8.45;;;6.30;;
74100;SDS011;62462;52.530;21.682;2022-08-03T20:32:56;9.40;;;6.53;;
74100;SDS011;62462;52.530;21.682;2022-08-03T20:35:22;12.07;;;6.22;;
74100;SDS011;62462;52.530;21.682;2022-08-03T20:37:48;8.70;;;5.93;;
74100;SDS011;62462;52.530;21.682;2022-08-03T20:40:14;8.95;;;6.15;;
74100;SDS011;62462;52.530;21.682;2022-08-03T20:42:39;7.25;;;5.35;;
74100;SDS011;62462;52.530;21.682;2022-08-03T20:45:05;8.07;;;5.20;;
74100;SDS011;62462;52.530;21.682;2022-08-03T20:47:35;9.10;;;5.75;;
74100;SDS011;62462;52.530;21.682;2022-08-03T20:50:01;8.45;;;5.05;;
74100;SDS011;62462;52.530;21.682;2022-08-03T20:52:29;6.10;;;4.57;;
74100;SDS011;62462;52.530;21.682;2022-08-03T20:54:57;6.10;;;4.43;;
74100;SDS011;62462;52.530;21.682;2022-08-03T20:57:23;6.68;;;3.95;;
74100;SDS011;62462;52.530;21.682;2022-08-03T20:59:49;5.10;;;3.65;;
74100;SDS011;62462;52.530;21.682;2022-08-03T21:02:15;4.55;;;3.70;;
74100;SDS011;62462;52.530;21.682;2022-08-03T21:04:41;3.88;;;2.72;;
74100;SDS011;62462;52.530;21.682;2022-08-03T21:07:10;6.15;;;3.20;;
74100;SDS011;62462;52.530;21.682;2022-08-03T21:09:44;4.90;;;2.72;;
74100;SDS011;62462;52.530;21.682;2022-08-03T21:12:22;4.15;;;2.92;;
74100;SDS011;62462;52.530;21.682;2022-08-03T21:15:02;3.50;;;2.70;;
74100;SDS011;62462;52.530;21.682;2022-08-03T21:17:31;3.63;;;2.65;;
74100;SDS011;62462;52.530;21.682;2022-08-03T21:20:00;4.25;;;2.88;;
74100;SDS011;62462;52.530;21.682;2022-08-03T21:22:32;5.50;;;3.50;;
74100;SDS011;62462;52.530;21.682;2022-08-03T21:25:01;5.47;;;3.35;;
74100;SDS011;62462;52.530;21.682;2022-08-03T21:27:31;5.50;;;2.92;;
74100;SDS011;62462;52.530;21.682;2022-08-03T21:29:58;5.93;;;2.33;;
74100;SDS011;62462;52.530;21.682;2022-08-03T21:32:27;4.63;;;2.60;;
74100;SDS011;62462;52.530;21.682;2022-08-03T21:34:57;4.10;;;2.63;;
74100;SDS011;62462;52.530;21.682;2022-08-03T21:37:24;3.15;;;2.47;;
74100;SDS011;62462;52.530;21.682;2022-08-03T21:39:53;3.72;;;2.20;;
74100;SDS011;62462;52.530;21.682;2022-08-03T21:42:20;4.13;;;2.55;;
74100;SDS011;62462;52.530;21.682;2022-08-03T21:44:50;2.80;;;2.05;;
74100;SDS011;62462;52.530;21.682;2022-08-03T21:47:17;4.45;;;2.40;;
74100;SDS011;62462;52.530;21.682;2022-08-03T21:49:46;2.85;;;2.20;;
74100;SDS011;62462;52.530;21.682;2022-08-03T21:52:13;2.55;;;1.90;;
74100;SDS011;62462;52.530;21.682;2022-08-03T21:54:42;3.40;;;2.10;;
74100;SDS011;62462;52.530;21.682;2022-08-03T21:57:12;4.82;;;1.90;;
74100;SDS011;62462;52.530;21.682;2022-08-03T21:59:44;4.75;;;2.35;;
74100;SDS011;62462;52.530;21.682;2022-08-03T22:02:20;3.08;;;2.00;;
74100;SDS011;62462;52.530;21.682;2022-08-03T22:04:54;2.35;;;2.10;;
74100;SDS011;62462;52.530;21.682;2022-08-03T22:07:21;3.53;;;2.17;;
74100;SDS011;62462;52.530;21.682;2022-08-03T22:09:48;2.88;;;1.92;;
74100;SDS011;62462;52.530;21.682;2022-08-03T22:12:16;2.60;;;1.80;;